Time;durP1;ratioP1;P1;durP2;ratioP2;P2;SDS_P1;SDS_P2;PMS_P1;PMS_P2;Temp;Humidity;BMP_temperature;BMP_pressure;BME280_temperature;BME280_humidity;BME280_pressure;Samples;Min_cycle;Max_cycle;Signal;HPM_P1;HPM_P2
2023/04/28 00:01:32;;;;;;;11.88;9.15;;;;;;;;;;5079872;28;20533;-65
2023/04/28 00:03:57;;;;;;;11.35;9.00;;;;;;;;;;5078836;28;20109;-65
2023/04/28 00:06:23;;;;;;;16.60;10.20;;;;;;;;;;5077539;28;20036;-66
2023/04/28 00:08:48;;;;;;;15.65;10.10;;;;;;;;;;5077517;28;20114;-65
2023/04/28 00:11:13;;;;;;;18.52;10.25;;;;;;;;;;5073813;28;20035;-66
2023/04/28 00:13:38;;;;;;;13.88;9.35;;;;;;;;;;5079563;28;20066;-65
2023/04/28 00:16:04;;;;;;;12.88;9.13;;;;;;;;;;5079696;28;20085;-65
2023/04/28 00:18:29;;;;;;;13.30;9.80;;;;;;;;;;5082217;28;20020;-65
2023/04/28 00:20:55;;;;;;;13.68;9.32;;;;;;;;;;5081494;28;20703;-66
2023/04/28 00:23:20;;;;;;;13.60;9.63;;;;;;;;;;5079960;28;20040;-66
2023/04/28 00:25:52;;;;;;;13.80;9.20;;;;;;;;;;5079723;28;20710;-66
2023/04/28 00:28:17;;;;;;;12.65;9.60;;;;;;;;;;5082178;28;20027;-66
2023/04/28 00:30:42;;;;;;;13.50;9.48;;;;;;;;;;5083762;28;20148;-66
2023/04/28 00:33:08;;;;;;;16.50;10.10;;;;;;;;;;5081882;28;20827;-66
2023/04/28 00:35:33;;;;;;;14.40;9.77;;;;;;;;;;5082737;28;20036;-66
2023/04/28 00:37:58;;;;;;;17.90;10.40;;;;;;;;;;5080431;28;20039;-65
2023/04/28 00:40:31;;;;;;;14.88;9.82;;;;;;;;;;5081114;28;20111;-66
2023/04/28 00:42:56;;;;;;;12.95;9.80;;;;;;;;;;5081573;28;20060;-65
2023/04/28 00:45:21;;;;;;;16.95;10.85;;;;;;;;;;5080392;28;20123;-66
2023/04/28 00:47:47;;;;;;;15.07;10.70;;;;;;;;;;5081163;28;20090;-66
2023/04/28 00:50:12;;;;;;;14.13;9.68;;;;;;;;;;5079604;28;20053;-66
2023/04/28 00:52:37;;;;;;;16.63;11.07;;;;;;;;;;5078825;28;20846;-65
2023/04/28 00:55:03;;;;;;;12.70;10.52;;;;;;;;;;5078343;28;20093;-66
2023/04/28 00:57:29;;;;;;;15.02;10.95;;;;;;;;;;5072302;28;20470;-66
2023/04/28 00:59:55;;;;;;;15.30;11.52;;;;;;;;;;5077381;28;20367;-65
2023/04/28 01:02:21;;;;;;;15.75;12.55;;;;;;;;;;5080149;28;20039;-66
2023/04/28 01:04:47;;;;;;;15.10;12.05;;;;;;;;;;5067518;28;20032;-66
2023/04/28 01:07:12;;;;;;;19.92;12.77;;;;;;;;;;5079653;28;20367;-66
2023/04/28 01:09:37;;;;;;;16.58;11.95;;;;;;;;;;5066873;28;20025;-66
2023/04/28 01:12:02;;;;;;;18.92;12.57;;;;;;;;;;5074830;28;20137;-66
2023/04/28 01:14:28;;;;;;;18.90;12.82;;;;;;;;;;5078903;28;20016;-66
2023/04/28 01:16:53;;;;;;;18.83;12.52;;;;;;;;;;5061682;28;20743;-66
2023/04/28 01:19:22;;;;;;;16.80;12.93;;;;;;;;;;5078730;28;20028;-66
2023/04/28 01:21:47;;;;;;;16.20;12.75;;;;;;;;;;5069901;28;20148;-66
2023/04/28 01:24:13;;;;;;;15.43;12.70;;;;;;;;;;5072527;28;20024;-66
2023/04/28 01:26:38;;;;;;;18.05;13.80;;;;;;;;;;5075096;28;20573;-66
2023/04/28 01:29:03;;;;;;;18.83;12.55;;;;;;;;;;5081943;28;20027;-66
2023/04/28 01:31:32;;;;;;;20.23;12.88;;;;;;;;;;5081933;28;20059;-65
2023/04/28 01:33:57;;;;;;;18.60;12.50;;;;;;;;;;5080877;28;20141;-66
2023/04/28 01:36:23;;;;;;;21.33;12.85;;;;;;;;;;5069195;28;20862;-65
2023/04/28 01:38:48;;;;;;;17.13;13.65;;;;;;;;;;5079793;28;20020;-64
2023/04/28 01:41:13;;;;;;;17.88;13.10;;;;;;;;;;5077784;28;20032;-65
2023/04/28 01:43:39;;;;;;;23.65;13.45;;;;;;;;;;5078626;28;20028;-64
2023/04/28 01:46:04;;;;;;;18.25;12.63;;;;;;;;;;5078517;28;20035;-64
2023/04/28 01:48:30;;;;;;;20.88;12.98;;;;;;;;;;5080392;28;20032;-65
2023/04/28 01:50:55;;;;;;;20.35;14.15;;;;;;;;;;5079141;28;20122;-65
2023/04/28 01:53:20;;;;;;;21.00;13.15;;;;;;;;;;5072258;28;20094;-65
2023/04/28 01:55:48;;;;;;;18.35;12.40;;;;;;;;;;5077540;28;20111;-66
2023/04/28 01:58:14;;;;;;;20.90;13.60;;;;;;;;;;5078253;28;20632;-65
2023/04/28 02:00:39;;;;;;;17.85;12.85;;;;;;;;;;5079027;28;20094;-65
2023/04/28 02:03:05;;;;;;;19.02;12.90;;;;;;;;;;5070701;28;20104;-65
2023/04/28 02:05:30;;;;;;;21.23;12.57;;;;;;;;;;5077346;28;20027;-65
2023/04/28 02:07:55;;;;;;;18.35;13.63;;;;;;;;;;5079630;28;20027;-65
2023/04/28 02:10:21;;;;;;;17.63;13.18;;;;;;;;;;5074106;28;20748;-65
2023/04/28 02:12:46;;;;;;;22.63;13.20;;;;;;;;;;5074144;28;21542;-65
2023/04/28 02:15:11;;;;;;;16.98;13.07;;;;;;;;;;5070297;28;20128;-65
2023/04/28 02:17:36;;;;;;;25.17;13.05;;;;;;;;;;5064878;28;20020;-64
2023/04/28 02:20:02;;;;;;;17.15;12.55;;;;;;;;;;5043157;28;20028;-64
2023/04/28 02:22:27;;;;;;;19.13;12.82;;;;;;;;;;5043863;28;20081;-65
2023/04/28 02:24:52;;;;;;;19.83;13.32;;;;;;;;;;5063697;28;20035;-65
2023/04/28 02:27:18;;;;;;;16.80;12.95;;;;;;;;;;5076067;28;20039;-65
2023/04/28 02:29:43;;;;;;;21.83;15.00;;;;;;;;;;5074819;28;20024;-64
2023/04/28 02:32:08;;;;;;;18.38;13.30;;;;;;;;;;5063235;28;20038;-64
2023/04/28 02:34:34;;;;;;;21.10;14.10;;;;;;;;;;5076392;28;20027;-64
2023/04/28 02:36:59;;;;;;;17.83;13.35;;;;;;;;;;5074240;28;20036;-64
2023/04/28 02:39:25;;;;;;;18.52;13.10;;;;;;;;;;5071416;28;20143;-65
2023/04/28 02:41:54;;;;;;;27.98;14.32;;;;;;;;;;5073832;28;20073;-64
2023/04/28 02:44:20;;;;;;;18.45;13.70;;;;;;;;;;5074896;28;20040;-64
2023/04/28 02:46:45;;;;;;;23.55;14.32;;;;;;;;;;5074276;28;20845;-64
2023/04/28 02:49:10;;;;;;;21.20;14.70;;;;;;;;;;5076357;28;20024;-64
2023/04/28 02:51:36;;;;;;;17.23;14.15;;;;;;;;;;5076308;28;20115;-65
2023/04/28 02:54:01;;;;;;;21.48;15.50;;;;;;;;;;5069964;28;20032;-64
2023/04/28 02:56:28;;;;;;;25.45;15.85;;;;;;;;;;5064033;28;20131;-65
2023/04/28 02:58:53;;;;;;;25.35;16.85;;;;;;;;;;5074735;28;20035;-64
2023/04/28 03:01:19;;;;;;;25.85;16.88;;;;;;;;;;5076302;28;20028;-64
2023/04/28 03:03:44;;;;;;;19.85;15.70;;;;;;;;;;5077627;28;20141;-64
2023/04/28 03:06:09;;;;;;;24.42;17.10;;;;;;;;;;5074186;28;20107;-64
2023/04/28 03:08:34;;;;;;;23.00;17.17;;;;;;;;;;5076256;28;20075;-65
2023/04/28 03:11:00;;;;;;;24.00;17.65;;;;;;;;;;5059047;28;20824;-65
2023/04/28 03:13:26;;;;;;;21.52;17.40;;;;;;;;;;5074157;28;20028;-65
2023/04/28 03:15:51;;;;;;;28.80;18.98;;;;;;;;;;5072788;28;20031;-65
2023/04/28 03:18:17;;;;;;;19.98;15.80;;;;;;;;;;5075331;28;20024;-65
2023/04/28 03:20:42;;;;;;;31.92;18.52;;;;;;;;;;5077463;28;20031;-65
2023/04/28 03:23:07;;;;;;;23.17;17.45;;;;;;;;;;5071535;28;20458;-65
2023/04/28 03:25:33;;;;;;;25.48;16.33;;;;;;;;;;5075241;28;20031;-65
2023/04/28 03:27:58;;;;;;;22.95;17.77;;;;;;;;;;5074510;28;20028;-64
2023/04/28 03:30:23;;;;;;;24.98;18.08;;;;;;;;;;5075127;28;20836;-64
2023/04/28 03:32:48;;;;;;;23.67;18.55;;;;;;;;;;5077184;28;20032;-64
2023/04/28 03:35:14;;;;;;;30.23;20.55;;;;;;;;;;5068846;28;20127;-64
2023/04/28 03:37:39;;;;;;;26.92;20.75;;;;;;;;;;5074850;28;20762;-65
2023/04/28 03:40:05;;;;;;;25.35;19.80;;;;;;;;;;5079029;28;20479;-64
2023/04/28 03:42:30;;;;;;;24.42;19.80;;;;;;;;;;5073582;28;20081;-64
2023/04/28 03:44:55;;;;;;;26.70;19.67;;;;;;;;;;5066341;28;20686;-64
2023/04/28 03:47:20;;;;;;;27.05;20.35;;;;;;;;;;5077577;28;20032;-64
2023/04/28 03:49:46;;;;;;;25.27;20.52;;;;;;;;;;5079459;28;20024;-65
2023/04/28 03:52:11;;;;;;;25.58;20.70;;;;;;;;;;5079600;28;20455;-64
2023/04/28 03:54:36;;;;;;;28.80;20.45;;;;;;;;;;5077797;28;20051;-64
2023/04/28 03:57:03;;;;;;;30.05;20.27;;;;;;;;;;5073121;28;20036;-65
2023/04/28 03:59:28;;;;;;;25.88;19.52;;;;;;;;;;5078322;28;20016;-64
2023/04/28 04:01:54;;;;;;;24.48;19.63;;;;;;;;;;5079555;28;20042;-64
2023/04/28 04:04:19;;;;;;;28.38;20.50;;;;;;;;;;5077492;28;20572;-64
2023/04/28 04:06:44;;;;;;;24.77;18.92;;;;;;;;;;5075176;28;20017;-64
2023/04/28 04:09:10;;;;;;;30.85;21.90;;;;;;;;;;5075373;28;20035;-65
2023/04/28 04:11:35;;;;;;;26.60;20.35;;;;;;;;;;5059419;28;20025;-65
2023/04/28 04:14:00;;;;;;;27.05;20.30;;;;;;;;;;5079383;28;20452;-65
2023/04/28 04:16:25;;;;;;;26.60;19.05;;;;;;;;;;5078567;28;20035;-65
2023/04/28 04:18:51;;;;;;;23.42;19.95;;;;;;;;;;5077072;28;20089;-64
2023/04/28 04:21:16;;;;;;;25.73;19.98;;;;;;;;;;5075539;28;20024;-64
2023/04/28 04:23:41;;;;;;;22.90;19.48;;;;;;;;;;5075003;28;20161;-65
2023/04/28 04:26:06;;;;;;;26.15;20.08;;;;;;;;;;5075901;28;20045;-65
2023/04/28 04:28:32;;;;;;;23.80;19.02;;;;;;;;;;5079167;28;20763;-65
2023/04/28 04:30:58;;;;;;;26.02;18.10;;;;;;;;;;5078422;28;20036;-64
2023/04/28 04:33:23;;;;;;;28.63;19.40;;;;;;;;;;5078004;28;20057;-65
2023/04/28 04:35:48;;;;;;;23.25;19.23;;;;;;;;;;5075406;28;20028;-64
2023/04/28 04:38:14;;;;;;;29.63;20.98;;;;;;;;;;5071156;28;20033;-65
2023/04/28 04:40:39;;;;;;;36.30;21.75;;;;;;;;;;5071059;28;20089;-64
2023/04/28 04:43:04;;;;;;;27.95;20.75;;;;;;;;;;5078857;28;20024;-64
2023/04/28 04:45:29;;;;;;;23.15;19.63;;;;;;;;;;5080208;28;20925;-64
2023/04/28 04:47:55;;;;;;;27.60;22.35;;;;;;;;;;5078988;28;20024;-65
2023/04/28 04:50:20;;;;;;;23.48;20.33;;;;;;;;;;5078640;28;20033;-65
2023/04/28 04:52:45;;;;;;;31.85;21.77;;;;;;;;;;5078491;28;20119;-64
2023/04/28 04:55:10;;;;;;;25.02;19.70;;;;;;;;;;5076291;28;20016;-64
2023/04/28 04:57:36;;;;;;;29.58;20.77;;;;;;;;;;5076036;28;20723;-65
2023/04/28 05:00:03;;;;;;;30.27;21.13;;;;;;;;;;5077822;28;20495;-64
2023/04/28 05:02:28;;;;;;;31.10;22.67;;;;;;;;;;5078238;28;20073;-64
2023/04/28 05:04:54;;;;;;;26.38;22.38;;;;;;;;;;5079737;28;20019;-65
2023/04/28 05:07:19;;;;;;;26.13;21.70;;;;;;;;;;5080471;28;20032;-65
2023/04/28 05:09:44;;;;;;;25.83;20.77;;;;;;;;;;5072668;28;20138;-64
2023/04/28 05:12:09;;;;;;;26.33;21.58;;;;;;;;;;5068913;28;20042;-65
2023/04/28 05:14:35;;;;;;;30.98;20.42;;;;;;;;;;5074092;28;20036;-65
2023/04/28 05:17:00;;;;;;;23.88;19.50;;;;;;;;;;5070114;28;20039;-65
2023/04/28 05:19:25;;;;;;;21.85;18.58;;;;;;;;;;5073337;28;20032;-65
2023/04/28 05:21:53;;;;;;;25.92;20.52;;;;;;;;;;5070566;28;20091;-65
2023/04/28 05:24:22;;;;;;;30.33;21.60;;;;;;;;;;5074904;28;20027;-65
2023/04/28 05:26:47;;;;;;;24.30;20.08;;;;;;;;;;5072124;28;20036;-65
2023/04/28 05:29:12;;;;;;;25.77;18.48;;;;;;;;;;5069528;28;20043;-65
2023/04/28 05:31:38;;;;;;;25.00;19.38;;;;;;;;;;5073238;28;20032;-65
2023/04/28 05:34:03;;;;;;;24.80;20.30;;;;;;;;;;5071621;28;20359;-65
2023/04/28 05:36:28;;;;;;;24.40;21.08;;;;;;;;;;5048299;28;20141;-64
2023/04/28 05:38:53;;;;;;;26.55;20.83;;;;;;;;;;5060418;28;20039;-64
2023/04/28 05:41:19;;;;;;;28.83;22.10;;;;;;;;;;5063823;28;20100;-64
2023/04/28 05:43:46;;;;;;;27.15;20.67;;;;;;;;;;5063928;28;20032;-64
2023/04/28 05:46:12;;;;;;;29.00;21.50;;;;;;;;;;5059238;28;20042;-64
2023/04/28 05:48:38;;;;;;;25.92;20.27;;;;;;;;;;5065675;28;20815;-64
2023/04/28 05:51:03;;;;;;;24.63;20.00;;;;;;;;;;5066225;28;20039;-64
2023/04/28 05:53:29;;;;;;;25.58;19.83;;;;;;;;;;5069660;28;20028;-64
2023/04/28 05:55:54;;;;;;;24.58;18.95;;;;;;;;;;5062822;28;20149;-64
2023/04/28 05:58:19;;;;;;;26.98;19.98;;;;;;;;;;5046790;28;20035;-64
2023/04/28 06:00:44;;;;;;;19.75;17.42;;;;;;;;;;5043417;28;20067;-64
2023/04/28 06:03:10;;;;;;;21.58;18.40;;;;;;;;;;5046351;28;20883;-65
2023/04/28 06:05:35;;;;;;;20.02;17.45;;;;;;;;;;5050724;28;20027;-65
2023/04/28 06:08:02;;;;;;;22.13;18.77;;;;;;;;;;5042715;28;20088;-65
2023/04/28 06:10:27;;;;;;;20.50;17.63;;;;;;;;;;5045134;28;20097;-65
2023/04/28 06:12:52;;;;;;;23.27;17.88;;;;;;;;;;5046247;28;20020;-65
2023/04/28 06:15:18;;;;;;;21.70;16.38;;;;;;;;;;5046157;28;20862;-64
2023/04/28 06:17:43;;;;;;;23.10;17.20;;;;;;;;;;5037768;28;20022;-64
2023/04/28 06:20:11;;;;;;;23.58;15.70;;;;;;;;;;5044734;28;20032;-64
2023/04/28 06:22:36;;;;;;;20.23;16.15;;;;;;;;;;5045714;28;20032;-64
2023/04/28 06:25:01;;;;;;;21.15;15.80;;;;;;;;;;5046827;28;20075;-64
2023/04/28 06:27:27;;;;;;;20.13;16.60;;;;;;;;;;5051018;28;20957;-64
2023/04/28 06:29:52;;;;;;;25.65;15.98;;;;;;;;;;5044365;28;20027;-64
2023/04/28 06:32:17;;;;;;;18.05;15.85;;;;;;;;;;5045135;28;20036;-64
2023/04/28 06:34:42;;;;;;;23.55;15.98;;;;;;;;;;5049376;28;20849;-64
2023/04/28 06:37:08;;;;;;;19.42;15.98;;;;;;;;;;5048181;28;20024;-64
2023/04/28 06:39:33;;;;;;;21.13;16.20;;;;;;;;;;5053228;28;20043;-64
2023/04/28 06:42:00;;;;;;;19.33;13.68;;;;;;;;;;5046112;28;20060;-65
2023/04/28 06:44:26;;;;;;;17.02;14.45;;;;;;;;;;5045509;28;20435;-64
2023/04/28 06:46:51;;;;;;;23.88;14.82;;;;;;;;;;5049722;28;20043;-64
2023/04/28 06:49:16;;;;;;;21.00;14.93;;;;;;;;;;5045842;28;20076;-64
2023/04/28 06:51:41;;;;;;;17.17;14.60;;;;;;;;;;5057768;28;20844;-64
2023/04/28 06:54:07;;;;;;;19.33;14.90;;;;;;;;;;5035712;28;20020;-64
2023/04/28 06:56:32;;;;;;;17.92;14.52;;;;;;;;;;5046197;28;20020;-64
2023/04/28 06:58:57;;;;;;;24.20;15.52;;;;;;;;;;5044038;28;20024;-64
2023/04/28 07:01:23;;;;;;;16.63;13.48;;;;;;;;;;5044840;28;20113;-64
2023/04/28 07:03:48;;;;;;;16.15;13.77;;;;;;;;;;5045649;28;20098;-64
2023/04/28 07:06:15;;;;;;;19.00;13.68;;;;;;;;;;5059151;28;20805;-64
2023/04/28 07:08:41;;;;;;;15.82;13.98;;;;;;;;;;5044304;28;20024;-64
2023/04/28 07:11:06;;;;;;;16.20;13.43;;;;;;;;;;5042786;28;20097;-64
2023/04/28 07:13:31;;;;;;;18.48;15.13;;;;;;;;;;5045609;28;20024;-64
2023/04/28 07:15:57;;;;;;;22.10;15.73;;;;;;;;;;5046000;28;20036;-64
2023/04/28 07:18:22;;;;;;;17.52;14.80;;;;;;;;;;5044088;28;20024;-64
2023/04/28 07:20:47;;;;;;;16.50;14.23;;;;;;;;;;5042145;28;20147;-64
2023/04/28 07:23:13;;;;;;;20.38;15.55;;;;;;;;;;5036536;28;20138;-64
2023/04/28 07:25:40;;;;;;;16.80;13.90;;;;;;;;;;5039027;28;20901;-64
2023/04/28 07:28:05;;;;;;;17.85;15.73;;;;;;;;;;5059430;28;20032;-66
2023/04/28 07:30:30;;;;;;;18.60;15.73;;;;;;;;;;5069241;28;20074;-64
2023/04/28 07:32:56;;;;;;;20.45;16.50;;;;;;;;;;5042009;28;20028;-64
2023/04/28 07:35:21;;;;;;;18.70;16.13;;;;;;;;;;5032991;28;20032;-64
2023/04/28 07:37:47;;;;;;;22.65;16.85;;;;;;;;;;5041795;28;20816;-64
2023/04/28 07:40:12;;;;;;;18.63;16.63;;;;;;;;;;5043208;28;20032;-64
2023/04/28 07:42:37;;;;;;;23.00;18.10;;;;;;;;;;5063002;28;20028;-64
2023/04/28 07:45:03;;;;;;;27.48;19.00;;;;;;;;;;5073706;28;20023;-64
2023/04/28 07:47:29;;;;;;;22.05;19.00;;;;;;;;;;5066821;28;20058;-64
2023/04/28 07:49:54;;;;;;;23.08;19.42;;;;;;;;;;5053235;28;20024;-63
2023/04/28 07:52:19;;;;;;;26.88;19.75;;;;;;;;;;5044105;28;20938;-64
2023/04/28 07:54:45;;;;;;;36.33;19.77;;;;;;;;;;5065167;28;20089;-64
2023/04/28 07:57:10;;;;;;;27.20;20.80;;;;;;;;;;5052737;28;20107;-64
2023/04/28 07:59:35;;;;;;;24.70;19.13;;;;;;;;;;5072506;28;20055;-64
2023/04/28 08:02:02;;;;;;;21.42;17.42;;;;;;;;;;5042880;28;20068;-64
2023/04/28 08:04:27;;;;;;;21.63;18.77;;;;;;;;;;5043062;28;20034;-65
2023/04/28 08:06:52;;;;;;;21.38;18.08;;;;;;;;;;5043517;28;20028;-64
2023/04/28 08:09:17;;;;;;;19.33;15.02;;;;;;;;;;5044409;28;20032;-65
2023/04/28 08:11:43;;;;;;;21.90;16.95;;;;;;;;;;5042147;28;20016;-65
2023/04/28 08:14:08;;;;;;;16.27;14.57;;;;;;;;;;5042492;28;20028;-64
2023/04/28 08:16:37;;;;;;;18.55;15.38;;;;;;;;;;5043840;28;20886;-64
2023/04/28 08:19:02;;;;;;;16.42;13.00;;;;;;;;;;5031594;28;20886;-64
2023/04/28 08:21:27;;;;;;;11.23;9.95;;;;;;;;;;5070140;28;20085;-64
2023/04/28 08:23:53;;;;;;;12.00;9.77;;;;;;;;;;5035787;28;20147;-64
2023/04/28 08:26:18;;;;;;;13.68;10.20;;;;;;;;;;5044017;28;20769;-64
2023/04/28 08:28:43;;;;;;;13.02;11.05;;;;;;;;;;5084327;28;20024;-66
2023/04/28 08:31:09;;;;;;;12.45;11.10;;;;;;;;;;5090108;28;20470;-66
2023/04/28 08:33:34;;;;;;;12.82;11.05;;;;;;;;;;5078851;28;20908;-64
2023/04/28 08:35:59;;;;;;;12.80;11.32;;;;;;;;;;5025194;28;20139;-64
2023/04/28 08:38:25;;;;;;;11.18;9.90;;;;;;;;;;5088192;28;20498;-65
2023/04/28 08:40:50;;;;;;;14.98;10.00;;;;;;;;;;5093276;28;20384;-66
2023/04/28 08:43:16;;;;;;;11.07;9.90;;;;;;;;;;5074600;28;20031;-67
2023/04/28 08:45:42;;;;;;;12.50;10.23;;;;;;;;;;5049501;28;20291;-66
2023/04/28 08:48:26;;;;;;;11.18;10.10;;;;;;;;;;5053495;28;20032;-64
2023/04/28 08:50:52;;;;;;;15.83;10.70;;;;;;;;;;5066527;28;20036;-66
2023/04/28 08:53:24;;;;;;;12.30;9.85;;;;;;;;;;5042365;28;20394;-66
2023/04/28 08:55:50;;;;;;;13.40;9.20;;;;;;;;;;5044130;28;20031;-66
2023/04/28 08:58:16;;;;;;;11.13;9.30;;;;;;;;;;5042624;28;20940;-65
2023/04/28 09:00:41;;;;;;;12.35;9.98;;;;;;;;;;5037090;28;20042;-65
2023/04/28 09:03:07;;;;;;;12.18;10.45;;;;;;;;;;5038997;28;20935;-65
2023/04/28 09:05:33;;;;;;;13.93;9.80;;;;;;;;;;5046661;28;20066;-65
2023/04/28 09:08:00;;;;;;;14.73;9.50;;;;;;;;;;5040859;28;20148;-65
2023/04/28 09:10:26;;;;;;;10.40;9.30;;;;;;;;;;5041379;28;20120;-65
2023/04/28 09:12:53;;;;;;;13.20;10.32;;;;;;;;;;5040896;28;20898;-65
2023/04/28 09:15:31;;;;;;;10.10;8.88;;;;;;;;;;5046532;28;20431;-65
2023/04/28 09:17:57;;;;;;;13.32;10.40;;;;;;;;;;5045717;28;20032;-65
2023/04/28 09:20:23;;;;;;;9.57;7.97;;;;;;;;;;5045192;28;20032;-65
2023/04/28 09:22:49;;;;;;;10.68;8.65;;;;;;;;;;5043185;28;20143;-65
2023/04/28 09:25:15;;;;;;;11.23;9.13;;;;;;;;;;5043454;28;20016;-65
2023/04/28 09:27:40;;;;;;;8.30;7.47;;;;;;;;;;5038520;28;20077;-65
2023/04/28 09:30:06;;;;;;;7.88;7.03;;;;;;;;;;5038997;28;20803;-65
2023/04/28 09:32:31;;;;;;;8.40;6.78;;;;;;;;;;5064467;28;20082;-65
2023/04/28 09:34:56;;;;;;;7.72;6.18;;;;;;;;;;5051956;28;20354;-65
2023/04/28 09:37:25;;;;;;;7.95;6.20;;;;;;;;;;5044356;28;20020;-65
2023/04/28 09:39:51;;;;;;;9.38;6.07;;;;;;;;;;5044833;28;20047;-66
2023/04/28 09:42:35;;;;;;;7.68;6.00;;;;;;;;;;5043404;28;20272;-65
2023/04/28 09:45:02;;;;;;;15.63;5.28;;;;;;;;;;5037257;28;20036;-65
2023/04/28 09:47:27;;;;;;;7.10;5.43;;;;;;;;;;5035769;28;20030;-65
2023/04/28 09:49:56;;;;;;;6.28;4.82;;;;;;;;;;5042356;28;20032;-66
2023/04/28 09:52:23;;;;;;;7.35;4.78;;;;;;;;;;5076203;28;20082;-66
2023/04/28 09:54:51;;;;;;;7.63;4.18;;;;;;;;;;5092093;28;20035;-66
2023/04/28 09:57:17;;;;;;;6.70;4.63;;;;;;;;;;5092013;28;20028;-65
2023/04/28 09:59:45;;;;;;;7.20;4.70;;;;;;;;;;5091976;28;20046;-65
2023/04/28 10:02:11;;;;;;;5.38;4.28;;;;;;;;;;5092140;28;20034;-66
2023/04/28 10:04:38;;;;;;;5.10;3.78;;;;;;;;;;5092196;28;20078;-65
2023/04/28 10:07:04;;;;;;;3.95;3.28;;;;;;;;;;5087836;28;20028;-63
2023/04/28 10:09:30;;;;;;;6.15;3.72;;;;;;;;;;5087215;28;20020;-64
2023/04/28 10:11:56;;;;;;;5.25;3.17;;;;;;;;;;5085982;28;20069;-64
2023/04/28 10:14:22;;;;;;;6.38;3.15;;;;;;;;;;5064399;28;20866;-64
2023/04/28 10:16:50;;;;;;;4.25;3.28;;;;;;;;;;5034699;28;20416;-66
2023/04/28 10:19:16;;;;;;;4.45;2.25;;;;;;;;;;5053440;28;20020;-72
2023/04/28 10:21:46;;;;;;;2.70;1.83;;;;;;;;;;5047169;28;20094;-63
2023/04/28 10:24:14;;;;;;;3.28;2.35;;;;;;;;;;5055619;28;20895;-62
2023/04/28 10:26:58;;;;;;;4.18;2.28;;;;;;;;;;5081185;28;20478;-66
2023/04/28 10:29:24;;;;;;;3.57;1.90;;;;;;;;;;5086171;28;20103;-66
2023/04/28 10:32:08;;;;;;;3.13;1.70;;;;;;;;;;5076698;28;20393;-66
2023/04/28 10:34:33;;;;;;;3.10;1.90;;;;;;;;;;5091271;28;20027;-66
2023/04/28 10:37:01;;;;;;;6.78;1.90;;;;;;;;;;5089376;28;20263;-66
2023/04/28 10:39:26;;;;;;;2.97;1.70;;;;;;;;;;5091077;28;20024;-66
2023/04/28 10:41:51;;;;;;;3.22;1.73;;;;;;;;;;5088958;28;20036;-66
2023/04/28 10:44:29;;;;;;;2.97;1.90;;;;;;;;;;5081536;28;20020;-66
2023/04/28 10:47:01;;;;;;;2.72;1.55;;;;;;;;;;5089641;28;20274;-66
2023/04/28 10:49:50;;;;;;;2.65;1.38;;;;;;;;;;5091083;28;20066;-66
2023/04/28 10:52:34;;;;;;;3.35;1.88;;;;;;;;;;5068244;28;20453;-66
2023/04/28 10:55:35;;;;;;;3.08;1.90;;;;;;;;;;5088251;28;20050;-66
2023/04/28 10:58:18;;;;;;;2.45;1.30;;;;;;;;;;5003816;28;20121;-66
2023/04/28 11:00:44;;;;;;;2.45;1.45;;;;;;;;;;5083675;28;20052;-66
2023/04/28 11:03:28;;;;;;;1.98;1.10;;;;;;;;;;5090876;28;20035;-65
2023/04/28 11:06:17;;;;;;;5.30;1.97;;;;;;;;;;5089349;28;20055;-66
2023/04/28 11:08:43;;;;;;;2.63;1.20;;;;;;;;;;5079855;28;20274;-67
2023/04/28 11:11:15;;;;;;;2.47;1.52;;;;;;;;;;5089602;28;20024;-67
2023/04/28 11:13:41;;;;;;;2.58;1.45;;;;;;;;;;5090929;28;20085;-67
2023/04/28 11:16:06;;;;;;;3.25;1.67;;;;;;;;;;5077994;28;20059;-66
2023/04/28 11:18:51;;;;;;;3.28;1.50;;;;;;;;;;5089868;28;20821;-67
2023/04/28 11:21:17;;;;;;;3.67;1.88;;;;;;;;;;5088025;28;20044;-67
2023/04/28 11:23:43;;;;;;;3.38;1.95;;;;;;;;;;5090871;28;20024;-67
2023/04/28 11:26:08;;;;;;;3.15;1.92;;;;;;;;;;5090746;28;20073;-66
2023/04/28 11:28:35;;;;;;;3.40;2.10;;;;;;;;;;5091096;28;20035;-67
2023/04/28 11:31:12;;;;;;;5.05;1.98;;;;;;;;;;5090670;28;20035;-67
2023/04/28 11:33:38;;;;;;;2.88;1.30;;;;;;;;;;5090931;28;20016;-67
2023/04/28 11:36:04;;;;;;;2.88;1.63;;;;;;;;;;5090856;28;20123;-67
2023/04/28 11:38:29;;;;;;;2.70;1.40;;;;;;;;;;5079042;28;20027;-66
2023/04/28 11:40:55;;;;;;;3.92;1.17;;;;;;;;;;5090915;28;20027;-66
2023/04/28 11:43:29;;;;;;;2.35;1.13;;;;;;;;;;5089418;28;20020;-67
2023/04/28 11:45:54;;;;;;;1.65;0.80;;;;;;;;;;5085103;28;20513;-68
2023/04/28 11:48:20;;;;;;;6.45;1.30;;;;;;;;;;5090400;28;20024;-66
2023/04/28 11:50:45;;;;;;;1.90;0.93;;;;;;;;;;5085293;28;20028;-66
2023/04/28 11:53:10;;;;;;;4.27;0.90;;;;;;;;;;5090387;28;20028;-66
2023/04/28 11:55:36;;;;;;;2.13;0.93;;;;;;;;;;5085064;28;20854;-66
2023/04/28 11:58:22;;;;;;;2.28;1.08;;;;;;;;;;5089623;28;20266;-66
2023/04/28 12:01:05;;;;;;;2.88;1.10;;;;;;;;;;5090022;28;20036;-66
2023/04/28 12:03:30;;;;;;;3.03;0.80;;;;;;;;;;5089884;28;20020;-67
2023/04/28 12:05:56;;;;;;;1.75;0.77;;;;;;;;;;5063072;28;20455;-67
2023/04/28 12:08:28;;;;;;;2.90;0.75;;;;;;;;;;5089273;28;20035;-66
2023/04/28 12:11:12;;;;;;;4.40;1.13;;;;;;;;;;5091747;28;20533;-67
2023/04/28 12:13:38;;;;;;;3.13;0.90;;;;;;;;;;5093978;28;20031;-67
2023/04/28 12:16:06;;;;;;;1.60;0.73;;;;;;;;;;5093529;28;20081;-67
2023/04/28 12:18:32;;;;;;;2.88;1.02;;;;;;;;;;5093472;28;20028;-67
2023/04/28 12:20:57;;;;;;;4.80;1.00;;;;;;;;;;5086960;28;20040;-67
2023/04/28 12:23:32;;;;;;;2.45;1.25;;;;;;;;;;5093672;28;20054;-67
2023/04/28 12:25:58;;;;;;;2.20;0.98;;;;;;;;;;5089410;28;20416;-68
2023/04/28 12:28:24;;;;;;;1.88;0.80;;;;;;;;;;5093450;28;20150;-67
2023/04/28 12:30:50;;;;;;;2.00;0.88;;;;;;;;;;5093571;28;20063;-67
2023/04/28 12:33:26;;;;;;;4.85;1.05;;;;;;;;;;5092860;28;20051;-67
2023/04/28 12:35:53;;;;;;;2.28;1.00;;;;;;;;;;5092754;28;20024;-67
2023/04/28 12:38:19;;;;;;;2.55;0.95;;;;;;;;;;5092894;28;20024;-66
2023/04/28 12:40:44;;;;;;;2.42;1.13;;;;;;;;;;5093402;28;20028;-69
2023/04/28 12:43:10;;;;;;;4.30;1.08;;;;;;;;;;5092682;28;20024;-67
2023/04/28 12:45:35;;;;;;;1.80;1.02;;;;;;;;;;5080479;28;20518;-67
2023/04/28 12:48:00;;;;;;;2.58;1.20;;;;;;;;;;5093376;28;20043;-67
2023/04/28 12:50:28;;;;;;;2.58;1.00;;;;;;;;;;5092633;28;20467;-67
2023/04/28 12:52:55;;;;;;;2.25;0.93;;;;;;;;;;5093412;28;20023;-67
2023/04/28 12:55:20;;;;;;;3.88;0.90;;;;;;;;;;5093074;28;20024;-67
2023/04/28 12:57:45;;;;;;;2.13;1.08;;;;;;;;;;5084038;28;20043;-67
2023/04/28 13:00:15;;;;;;;2.10;0.90;;;;;;;;;;5089445;28;20027;-68
2023/04/28 13:02:41;;;;;;;2.13;1.10;;;;;;;;;;5093112;28;20027;-67
2023/04/28 13:05:06;;;;;;;2.20;0.65;;;;;;;;;;5092794;28;20485;-67
2023/04/28 13:07:32;;;;;;;2.08;0.98;;;;;;;;;;5085839;28;20521;-67
2023/04/28 13:09:58;;;;;;;1.67;0.88;;;;;;;;;;5089562;28;20016;-67
2023/04/28 13:12:23;;;;;;;3.63;0.90;;;;;;;;;;5093061;28;20089;-67
2023/04/28 13:14:48;;;;;;;5.05;0.60;;;;;;;;;;5090672;28;20050;-67
2023/04/28 13:17:14;;;;;;;3.80;0.80;;;;;;;;;;5081674;28;20030;-67
2023/04/28 13:19:39;;;;;;;1.50;0.70;;;;;;;;;;5092243;28;20024;-66
2023/04/28 13:22:05;;;;;;;7.30;0.82;;;;;;;;;;5092258;28;20032;-67
2023/04/28 13:24:32;;;;;;;2.17;0.98;;;;;;;;;;5092405;28;20546;-67
2023/04/28 13:26:57;;;;;;;1.92;0.82;;;;;;;;;;5086279;28;20051;-67
2023/04/28 13:29:22;;;;;;;5.72;0.80;;;;;;;;;;5085041;28;20051;-67
2023/04/28 13:31:48;;;;;;;2.28;1.02;;;;;;;;;;5092183;28;20111;-67
2023/04/28 13:34:17;;;;;;;2.28;1.10;;;;;;;;;;5092344;28;20516;-67
2023/04/28 13:36:42;;;;;;;2.10;0.90;;;;;;;;;;5079105;28;20024;-67
2023/04/28 13:39:12;;;;;;;2.67;1.17;;;;;;;;;;5092803;28;20069;-67
2023/04/28 13:41:38;;;;;;;2.45;1.40;;;;;;;;;;5079777;28;20020;-67
2023/04/28 13:44:03;;;;;;;1.73;1.00;;;;;;;;;;5091950;28;20028;-67
2023/04/28 13:46:28;;;;;;;1.83;0.80;;;;;;;;;;5092436;28;20320;-66
2023/04/28 13:48:53;;;;;;;1.57;0.70;;;;;;;;;;5092378;28;20462;-67
2023/04/28 13:51:19;;;;;;;2.30;1.17;;;;;;;;;;5092316;28;20259;-67
2023/04/28 13:53:44;;;;;;;2.83;1.33;;;;;;;;;;5092231;28;20024;-67
2023/04/28 13:56:10;;;;;;;3.85;1.45;;;;;;;;;;5091558;28;20016;-67
2023/04/28 13:58:35;;;;;;;4.88;1.00;;;;;;;;;;5092019;28;20032;-67
2023/04/28 14:01:02;;;;;;;1.73;1.00;;;;;;;;;;5091543;28;20040;-65
2023/04/28 14:03:27;;;;;;;3.25;1.35;;;;;;;;;;5091839;28;20020;-65
2023/04/28 14:05:54;;;;;;;2.33;1.02;;;;;;;;;;5083620;28;20086;-64
2023/04/28 14:08:20;;;;;;;2.83;0.82;;;;;;;;;;5078779;28;20907;-64
2023/04/28 14:10:46;;;;;;;2.33;0.95;;;;;;;;;;5083472;28;20024;-64
2023/04/28 14:13:11;;;;;;;3.90;1.02;;;;;;;;;;5063919;28;20043;-63
2023/04/28 14:15:37;;;;;;;2.70;0.95;;;;;;;;;;5065829;28;20485;-63
2023/04/28 14:18:02;;;;;;;2.00;0.77;;;;;;;;;;5076702;28;20226;-64
2023/04/28 14:20:28;;;;;;;1.65;0.88;;;;;;;;;;5088135;28;20111;-63
2023/04/28 14:22:53;;;;;;;1.90;0.80;;;;;;;;;;5091264;28;20490;-62